Aérodrome :
LOGIN :

S'inscrire | Disclaimer

   EN    FR    IT 

 










Légende :    VFR   VFR Marginal   IFR   IFR Intensif   IFR Très Intensif
Visi : 
Plafond : 
>= 8 km
>= 3000ft
5 à 8 km
1000 à 3000 ft
1500m à 5 km
500 à 1000 ft
800 à 1500m
200 à 500 ft
< 800m
< 200 ft
Symboles :   Orages  Brouillard  Fortes neiges  Fortes précipitations  Vent > 20 kt
SIGMETs :   Divers  Orages  Givrage  Turbulence  Onde Orograph.  Cendres Volcan.







- Altitude de l'aérodrome : 187 ft


LPMR - Monte Real Air Base

DERNIER METAR :
  • 220700Z 16003KT 9999 FEW040 13/13 Q1020

METARs EXPIRÉS :
  • 220600Z VRB01KT 9999 FEW040 14/14 Q1020
  • 220500Z VRB02KT 9999 FEW040 14/14 Q1020

TAF TAF LPMR
Valide du 22 à 06h jusqu'au 23 à 06h UTC


220500Z 2206/2306 VRB02KT 9999 FEW030
BECMG 2212/2214 35010KT
PROB40
TEMPO 2214/2217 6000 -SHRA SCT020 BKN028 SCT035CB
BECMG 2217/2219 VRB02KT
BECMG 2223/2301 12012KT
Pas de NOTAMs connus pour ce terrain.



MET'MAP, la Météo Aéronautique d'un coup d'oeil ! - Copyright ORBIFLY Décembre 2007 - Disclaimer

ORBIFLY MET'MAP TEAM :

Programmation & Développement : Alexandra Zaïnal
Conception & Développement : Baudouin d'Aumeries
Co-Programmation & Développement : Marc-Olivier Méhu
Soutien technique & logistique : Manuel Goepfert

Contact : metmap@orbifly.com




SOURCES & CREDITS :

   NOAA